sensor_id;sensor_type;location;lat;lon;timestamp;P1;durP1;ratioP1;P2;durP2;ratioP2
48526;SDS011;34317;51.660;5.824;2023-06-26T00:01:33;15.63;;;11.18;;
48526;SDS011;34317;51.660;5.824;2023-06-26T00:04:00;12.40;;;10.23;;
48526;SDS011;34317;51.660;5.824;2023-06-26T00:06:28;12.70;;;10.48;;
48526;SDS011;34317;51.660;5.824;2023-06-26T00:08:55;12.52;;;10.30;;
48526;SDS011;34317;51.660;5.824;2023-06-26T00:11:23;13.68;;;10.25;;
48526;SDS011;34317;51.660;5.824;2023-06-26T00:13:51;12.00;;;9.65;;
48526;SDS011;34317;51.660;5.824;2023-06-26T00:16:18;10.65;;;9.50;;
48526;SDS011;34317;51.660;5.824;2023-06-26T00:18:45;11.88;;;9.82;;
48526;SDS011;34317;51.660;5.824;2023-06-26T00:21:13;12.10;;;9.32;;
48526;SDS011;34317;51.660;5.824;2023-06-26T00:23:40;11.93;;;9.75;;
48526;SDS011;34317;51.660;5.824;2023-06-26T00:26:07;12.00;;;9.52;;
48526;SDS011;34317;51.660;5.824;2023-06-26T00:28:36;11.20;;;9.38;;
48526;SDS011;34317;51.660;5.824;2023-06-26T00:31:04;10.93;;;9.13;;
48526;SDS011;34317;51.660;5.824;2023-06-26T00:33:31;13.70;;;10.63;;
48526;SDS011;34317;51.660;5.824;2023-06-26T00:35:59;11.57;;;9.55;;
48526;SDS011;34317;51.660;5.824;2023-06-26T00:38:26;10.40;;;8.88;;
48526;SDS011;34317;51.660;5.824;2023-06-26T00:40:53;11.02;;;9.10;;
48526;SDS011;34317;51.660;5.824;2023-06-26T00:43:22;10.30;;;7.82;;
48526;SDS011;34317;51.660;5.824;2023-06-26T00:45:49;10.43;;;7.57;;
48526;SDS011;34317;51.660;5.824;2023-06-26T00:48:16;9.98;;;8.45;;
48526;SDS011;34317;51.660;5.824;2023-06-26T00:50:45;10.75;;;8.70;;
48526;SDS011;34317;51.660;5.824;2023-06-26T00:53:12;10.70;;;8.07;;
48526;SDS011;34317;51.660;5.824;2023-06-26T00:55:39;10.50;;;8.60;;
48526;SDS011;34317;51.660;5.824;2023-06-26T00:58:08;10.52;;;8.77;;
48526;SDS011;34317;51.660;5.824;2023-06-26T01:00:36;10.35;;;8.95;;
48526;SDS011;34317;51.660;5.824;2023-06-26T01:03:03;11.90;;;9.65;;
48526;SDS011;34317;51.660;5.824;2023-06-26T01:05:31;10.73;;;9.55;;
48526;SDS011;34317;51.660;5.824;2023-06-26T01:07:58;11.52;;;9.70;;
48526;SDS011;34317;51.660;5.824;2023-06-26T01:10:26;12.27;;;10.30;;
48526;SDS011;34317;51.660;5.824;2023-06-26T01:12:55;13.02;;;10.45;;
48526;SDS011;34317;51.660;5.824;2023-06-26T01:15:22;12.23;;;9.90;;
48526;SDS011;34317;51.660;5.824;2023-06-26T01:17:51;12.77;;;9.85;;
48526;SDS011;34317;51.660;5.824;2023-06-26T01:20:18;12.20;;;9.68;;
48526;SDS011;34317;51.660;5.824;2023-06-26T01:22:59;11.85;;;9.80;;
48526;SDS011;34317;51.660;5.824;2023-06-26T01:28:29;12.13;;;9.77;;
48526;SDS011;34317;51.660;5.824;2023-06-26T01:30:58;11.90;;;9.95;;
48526;SDS011;34317;51.660;5.824;2023-06-26T01:33:26;11.50;;;10.30;;
48526;SDS011;34317;51.660;5.824;2023-06-26T01:35:53;12.93;;;10.27;;
48526;SDS011;34317;51.660;5.824;2023-06-26T01:38:21;14.73;;;10.55;;
48526;SDS011;34317;51.660;5.824;2023-06-26T01:40:52;12.15;;;10.57;;
48526;SDS011;34317;51.660;5.824;2023-06-26T01:46:00;10.38;;;8.88;;
48526;SDS011;34317;51.660;5.824;2023-06-26T01:48:34;11.27;;;7.93;;
48526;SDS011;34317;51.660;5.824;2023-06-26T01:51:13;9.82;;;7.30;;
48526;SDS011;34317;51.660;5.824;2023-06-26T01:53:45;8.90;;;7.20;;
48526;SDS011;34317;51.660;5.824;2023-06-26T01:56:16;8.95;;;6.38;;
48526;SDS011;34317;51.660;5.824;2023-06-26T01:58:46;10.15;;;7.28;;
48526;SDS011;34317;51.660;5.824;2023-06-26T02:01:15;7.53;;;6.35;;
48526;SDS011;34317;51.660;5.824;2023-06-26T02:03:42;7.80;;;6.40;;
48526;SDS011;34317;51.660;5.824;2023-06-26T02:06:09;9.35;;;6.07;;
48526;SDS011;34317;51.660;5.824;2023-06-26T02:08:36;8.35;;;5.90;;
48526;SDS011;34317;51.660;5.824;2023-06-26T02:11:04;6.95;;;5.80;;
48526;SDS011;34317;51.660;5.824;2023-06-26T02:13:32;7.78;;;5.60;;
48526;SDS011;34317;51.660;5.824;2023-06-26T02:15:59;7.07;;;5.22;;
48526;SDS011;34317;51.660;5.824;2023-06-26T02:18:26;7.30;;;4.63;;
48526;SDS011;34317;51.660;5.824;2023-06-26T02:20:53;7.10;;;4.40;;
48526;SDS011;34317;51.660;5.824;2023-06-26T02:23:21;9.05;;;4.25;;
48526;SDS011;34317;51.660;5.824;2023-06-26T02:25:48;7.55;;;4.40;;
48526;SDS011;34317;51.660;5.824;2023-06-26T02:28:15;6.63;;;4.20;;
48526;SDS011;34317;51.660;5.824;2023-06-26T02:30:42;5.97;;;4.22;;
48526;SDS011;34317;51.660;5.824;2023-06-26T02:33:10;5.47;;;3.75;;
48526;SDS011;34317;51.660;5.824;2023-06-26T02:35:37;5.32;;;3.72;;
48526;SDS011;34317;51.660;5.824;2023-06-26T02:38:04;7.40;;;3.70;;
48526;SDS011;34317;51.660;5.824;2023-06-26T02:40:32;6.38;;;4.15;;
48526;SDS011;34317;51.660;5.824;2023-06-26T02:43:01;6.57;;;3.85;;
48526;SDS011;34317;51.660;5.824;2023-06-26T02:45:28;7.53;;;4.10;;
48526;SDS011;34317;51.660;5.824;2023-06-26T02:47:56;5.90;;;3.85;;
48526;SDS011;34317;51.660;5.824;2023-06-26T02:50:23;5.88;;;4.00;;
48526;SDS011;34317;51.660;5.824;2023-06-26T02:53:03;6.57;;;3.88;;
48526;SDS011;34317;51.660;5.824;2023-06-26T02:55:31;6.70;;;3.90;;
48526;SDS011;34317;51.660;5.824;2023-06-26T02:57:59;6.28;;;3.45;;
48526;SDS011;34317;51.660;5.824;2023-06-26T03:00:26;5.93;;;3.67;;
48526;SDS011;34317;51.660;5.824;2023-06-26T03:02:58;9.40;;;4.03;;
48526;SDS011;34317;51.660;5.824;2023-06-26T03:05:25;6.78;;;3.92;;
48526;SDS011;34317;51.660;5.824;2023-06-26T03:07:53;9.68;;;3.95;;
48526;SDS011;34317;51.660;5.824;2023-06-26T03:10:20;6.47;;;3.75;;
48526;SDS011;34317;51.660;5.824;2023-06-26T03:12:48;8.35;;;4.05;;
48526;SDS011;34317;51.660;5.824;2023-06-26T03:15:17;8.45;;;4.10;;
48526;SDS011;34317;51.660;5.824;2023-06-26T03:17:46;7.68;;;3.90;;
48526;SDS011;34317;51.660;5.824;2023-06-26T03:20:20;8.55;;;4.13;;
48526;SDS011;34317;51.660;5.824;2023-06-26T03:22:52;8.35;;;3.92;;
48526;SDS011;34317;51.660;5.824;2023-06-26T03:25:20;9.20;;;4.13;;
48526;SDS011;34317;51.660;5.824;2023-06-26T03:27:50;7.30;;;3.90;;
48526;SDS011;34317;51.660;5.824;2023-06-26T03:30:18;8.18;;;3.85;;
48526;SDS011;34317;51.660;5.824;2023-06-26T03:32:49;8.40;;;4.22;;
48526;SDS011;34317;51.660;5.824;2023-06-26T03:35:16;7.75;;;4.97;;
48526;SDS011;34317;51.660;5.824;2023-06-26T03:37:46;7.93;;;5.80;;
48526;SDS011;34317;51.660;5.824;2023-06-26T03:40:16;10.35;;;5.05;;
48526;SDS011;34317;51.660;5.824;2023-06-26T03:42:44;8.00;;;4.97;;
48526;SDS011;34317;51.660;5.824;2023-06-26T03:45:11;7.00;;;4.88;;
48526;SDS011;34317;51.660;5.824;2023-06-26T03:47:39;10.88;;;5.05;;
48526;SDS011;34317;51.660;5.824;2023-06-26T03:50:06;9.32;;;4.88;;
48526;SDS011;34317;51.660;5.824;2023-06-26T03:52:34;9.38;;;4.57;;
48526;SDS011;34317;51.660;5.824;2023-06-26T03:55:01;8.05;;;4.75;;
48526;SDS011;34317;51.660;5.824;2023-06-26T03:57:29;10.05;;;4.03;;
48526;SDS011;34317;51.660;5.824;2023-06-26T03:59:57;8.35;;;4.40;;
48526;SDS011;34317;51.660;5.824;2023-06-26T04:02:24;9.80;;;4.28;;
48526;SDS011;34317;51.660;5.824;2023-06-26T04:04:51;10.15;;;4.43;;
48526;SDS011;34317;51.660;5.824;2023-06-26T04:07:20;9.60;;;4.75;;
48526;SDS011;34317;51.660;5.824;2023-06-26T04:09:47;7.80;;;4.88;;
48526;SDS011;34317;51.660;5.824;2023-06-26T04:12:14;7.10;;;5.13;;
48526;SDS011;34317;51.660;5.824;2023-06-26T04:14:41;8.75;;;5.40;;
48526;SDS011;34317;51.660;5.824;2023-06-26T04:17:10;9.63;;;5.63;;
48526;SDS011;34317;51.660;5.824;2023-06-26T04:19:41;9.93;;;6.20;;
48526;SDS011;34317;51.660;5.824;2023-06-26T04:22:15;9.95;;;5.60;;
48526;SDS011;34317;51.660;5.824;2023-06-26T04:24:42;8.55;;;5.50;;
48526;SDS011;34317;51.660;5.824;2023-06-26T04:27:10;9.60;;;5.70;;
48526;SDS011;34317;51.660;5.824;2023-06-26T04:29:37;11.20;;;6.10;;
48526;SDS011;34317;51.660;5.824;2023-06-26T04:32:04;8.23;;;5.63;;
48526;SDS011;34317;51.660;5.824;2023-06-26T04:34:32;10.63;;;5.50;;
48526;SDS011;34317;51.660;5.824;2023-06-26T04:37:00;14.00;;;5.50;;
48526;SDS011;34317;51.660;5.824;2023-06-26T04:39:30;9.27;;;5.20;;
48526;SDS011;34317;51.660;5.824;2023-06-26T04:41:57;8.75;;;5.55;;
48526;SDS011;34317;51.660;5.824;2023-06-26T04:44:25;8.57;;;5.38;;
48526;SDS011;34317;51.660;5.824;2023-06-26T04:46:52;7.75;;;5.40;;
48526;SDS011;34317;51.660;5.824;2023-06-26T04:49:19;10.52;;;5.35;;
48526;SDS011;34317;51.660;5.824;2023-06-26T04:51:47;9.32;;;4.95;;
48526;SDS011;34317;51.660;5.824;2023-06-26T04:54:15;9.88;;;4.80;;
48526;SDS011;34317;51.660;5.824;2023-06-26T04:56:42;10.98;;;5.15;;
48526;SDS011;34317;51.660;5.824;2023-06-26T04:59:10;9.38;;;5.07;;
48526;SDS011;34317;51.660;5.824;2023-06-26T05:01:40;11.43;;;5.47;;
48526;SDS011;34317;51.660;5.824;2023-06-26T05:04:07;9.35;;;5.32;;
48526;SDS011;34317;51.660;5.824;2023-06-26T05:06:35;10.77;;;5.00;;
48526;SDS011;34317;51.660;5.824;2023-06-26T05:09:02;9.00;;;4.85;;
48526;SDS011;34317;51.660;5.824;2023-06-26T05:11:29;9.95;;;5.13;;
48526;SDS011;34317;51.660;5.824;2023-06-26T05:13:56;9.38;;;5.32;;
48526;SDS011;34317;51.660;5.824;2023-06-26T05:16:23;12.05;;;5.75;;
48526;SDS011;34317;51.660;5.824;2023-06-26T05:18:50;11.32;;;5.43;;
48526;SDS011;34317;51.660;5.824;2023-06-26T05:21:17;9.10;;;5.25;;
48526;SDS011;34317;51.660;5.824;2023-06-26T05:23:45;12.52;;;5.30;;
48526;SDS011;34317;51.660;5.824;2023-06-26T05:26:13;11.98;;;5.20;;
48526;SDS011;34317;51.660;5.824;2023-06-26T05:28:41;13.68;;;5.32;;
48526;SDS011;34317;51.660;5.824;2023-06-26T05:31:11;10.00;;;4.82;;
48526;SDS011;34317;51.660;5.824;2023-06-26T05:33:38;11.60;;;5.30;;
48526;SDS011;34317;51.660;5.824;2023-06-26T05:36:08;10.75;;;5.50;;
48526;SDS011;34317;51.660;5.824;2023-06-26T05:38:36;12.65;;;5.35;;
48526;SDS011;34317;51.660;5.824;2023-06-26T05:41:03;12.75;;;4.78;;
48526;SDS011;34317;51.660;5.824;2023-06-26T05:43:30;15.30;;;5.38;;
48526;SDS011;34317;51.660;5.824;2023-06-26T05:45:58;10.43;;;4.70;;
48526;SDS011;34317;51.660;5.824;2023-06-26T05:48:25;16.30;;;4.25;;
48526;SDS011;34317;51.660;5.824;2023-06-26T05:50:52;14.77;;;4.72;;
48526;SDS011;34317;51.660;5.824;2023-06-26T05:53:20;17.25;;;4.50;;
48526;SDS011;34317;51.660;5.824;2023-06-26T05:55:47;11.35;;;4.10;;
48526;SDS011;34317;51.660;5.824;2023-06-26T05:58:15;13.00;;;4.80;;
48526;SDS011;34317;51.660;5.824;2023-06-26T06:00:44;14.63;;;3.78;;
48526;SDS011;34317;51.660;5.824;2023-06-26T06:03:11;12.88;;;4.47;;
48526;SDS011;34317;51.660;5.824;2023-06-26T06:05:38;12.63;;;3.92;;
48526;SDS011;34317;51.660;5.824;2023-06-26T06:08:05;9.68;;;3.92;;
48526;SDS011;34317;51.660;5.824;2023-06-26T06:10:32;11.45;;;3.97;;
48526;SDS011;34317;51.660;5.824;2023-06-26T06:12:59;13.25;;;3.83;;
48526;SDS011;34317;51.660;5.824;2023-06-26T06:15:27;11.82;;;4.65;;
48526;SDS011;34317;51.660;5.824;2023-06-26T06:17:56;13.93;;;4.35;;
48526;SDS011;34317;51.660;5.824;2023-06-26T06:20:24;14.95;;;4.13;;
48526;SDS011;34317;51.660;5.824;2023-06-26T06:22:51;11.55;;;4.07;;
48526;SDS011;34317;51.660;5.824;2023-06-26T06:25:18;12.63;;;3.92;;
48526;SDS011;34317;51.660;5.824;2023-06-26T06:27:46;10.18;;;4.15;;
48526;SDS011;34317;51.660;5.824;2023-06-26T06:30:13;12.77;;;3.95;;
48526;SDS011;34317;51.660;5.824;2023-06-26T06:32:40;14.02;;;4.25;;
48526;SDS011;34317;51.660;5.824;2023-06-26T06:35:07;12.13;;;3.92;;
48526;SDS011;34317;51.660;5.824;2023-06-26T06:37:37;10.50;;;3.90;;
48526;SDS011;34317;51.660;5.824;2023-06-26T06:40:05;12.20;;;3.83;;
48526;SDS011;34317;51.660;5.824;2023-06-26T06:42:33;12.30;;;4.35;;
48526;SDS011;34317;51.660;5.824;2023-06-26T06:45:03;14.82;;;3.78;;
48526;SDS011;34317;51.660;5.824;2023-06-26T06:47:31;11.05;;;4.10;;
48526;SDS011;34317;51.660;5.824;2023-06-26T06:50:00;9.45;;;3.55;;
48526;SDS011;34317;51.660;5.824;2023-06-26T06:52:36;13.55;;;4.28;;
48526;SDS011;34317;51.660;5.824;2023-06-26T06:55:04;12.65;;;4.05;;
48526;SDS011;34317;51.660;5.824;2023-06-26T06:57:38;10.50;;;3.77;;
48526;SDS011;34317;51.660;5.824;2023-06-26T07:00:10;11.13;;;4.03;;
48526;SDS011;34317;51.660;5.824;2023-06-26T07:02:39;10.05;;;3.63;;
48526;SDS011;34317;51.660;5.824;2023-06-26T07:05:09;7.65;;;3.95;;
48526;SDS011;34317;51.660;5.824;2023-06-26T07:07:37;6.82;;;2.92;;
48526;SDS011;34317;51.660;5.824;2023-06-26T07:10:06;9.13;;;3.35;;
48526;SDS011;34317;51.660;5.824;2023-06-26T07:12:35;7.55;;;3.05;;
48526;SDS011;34317;51.660;5.824;2023-06-26T07:15:03;6.47;;;2.80;;
48526;SDS011;34317;51.660;5.824;2023-06-26T07:17:31;5.65;;;2.80;;
48526;SDS011;34317;51.660;5.824;2023-06-26T07:20:00;6.13;;;3.00;;
48526;SDS011;34317;51.660;5.824;2023-06-26T07:22:31;5.57;;;2.70;;
48526;SDS011;34317;51.660;5.824;2023-06-26T07:24:58;5.30;;;2.85;;
48526;SDS011;34317;51.660;5.824;2023-06-26T07:27:25;8.88;;;2.90;;
48526;SDS011;34317;51.660;5.824;2023-06-26T07:29:52;5.47;;;2.65;;
48526;SDS011;34317;51.660;5.824;2023-06-26T07:32:19;7.28;;;2.92;;
48526;SDS011;34317;51.660;5.824;2023-06-26T07:34:46;9.43;;;3.08;;
48526;SDS011;34317;51.660;5.824;2023-06-26T07:37:13;7.88;;;3.40;;
48526;SDS011;34317;51.660;5.824;2023-06-26T07:39:40;7.03;;;2.65;;
48526;SDS011;34317;51.660;5.824;2023-06-26T07:42:08;7.47;;;3.00;;
48526;SDS011;34317;51.660;5.824;2023-06-26T07:44:35;6.45;;;2.80;;
48526;SDS011;34317;51.660;5.824;2023-06-26T07:47:02;4.82;;;2.60;;
48526;SDS011;34317;51.660;5.824;2023-06-26T07:49:30;6.22;;;3.05;;
48526;SDS011;34317;51.660;5.824;2023-06-26T07:51:57;7.05;;;3.10;;
48526;SDS011;34317;51.660;5.824;2023-06-26T07:54:25;7.10;;;3.03;;
48526;SDS011;34317;51.660;5.824;2023-06-26T07:56:53;7.65;;;3.40;;
48526;SDS011;34317;51.660;5.824;2023-06-26T07:59:21;6.78;;;3.20;;
48526;SDS011;34317;51.660;5.824;2023-06-26T08:01:50;7.28;;;3.42;;
48526;SDS011;34317;51.660;5.824;2023-06-26T08:04:19;6.65;;;3.08;;
48526;SDS011;34317;51.660;5.824;2023-06-26T08:06:50;7.95;;;3.40;;
48526;SDS011;34317;51.660;5.824;2023-06-26T08:09:22;5.70;;;3.47;;
48526;SDS011;34317;51.660;5.824;2023-06-26T08:11:50;7.55;;;3.28;;
48526;SDS011;34317;51.660;5.824;2023-06-26T08:14:17;7.65;;;3.40;;
48526;SDS011;34317;51.660;5.824;2023-06-26T08:16:46;7.07;;;2.97;;
48526;SDS011;34317;51.660;5.824;2023-06-26T08:19:13;7.45;;;3.65;;
48526;SDS011;34317;51.660;5.824;2023-06-26T08:21:42;10.48;;;5.93;;
48526;SDS011;34317;51.660;5.824;2023-06-26T08:24:10;10.85;;;3.78;;
48526;SDS011;34317;51.660;5.824;2023-06-26T08:26:39;9.35;;;3.58;;
48526;SDS011;34317;51.660;5.824;2023-06-26T08:29:07;5.60;;;2.90;;
48526;SDS011;34317;51.660;5.824;2023-06-26T08:31:39;10.68;;;3.90;;
48526;SDS011;34317;51.660;5.824;2023-06-26T08:34:07;5.70;;;3.10;;
48526;SDS011;34317;51.660;5.824;2023-06-26T08:36:35;12.10;;;6.28;;
48526;SDS011;34317;51.660;5.824;2023-06-26T08:39:02;6.43;;;3.30;;
48526;SDS011;34317;51.660;5.824;2023-06-26T08:41:31;4.97;;;2.85;;
48526;SDS011;34317;51.660;5.824;2023-06-26T08:43:59;8.65;;;3.33;;
48526;SDS011;34317;51.660;5.824;2023-06-26T08:46:26;6.50;;;3.10;;
48526;SDS011;34317;51.660;5.824;2023-06-26T08:48:55;7.28;;;3.30;;
48526;SDS011;34317;51.660;5.824;2023-06-26T08:51:24;14.27;;;4.78;;
48526;SDS011;34317;51.660;5.824;2023-06-26T08:53:59;11.48;;;4.40;;
48526;SDS011;34317;51.660;5.824;2023-06-26T08:56:28;5.97;;;2.60;;
48526;SDS011;34317;51.660;5.824;2023-06-26T08:58:59;3.90;;;2.08;;
48526;SDS011;34317;51.660;5.824;2023-06-26T09:01:27;4.85;;;2.20;;
48526;SDS011;34317;51.660;5.824;2023-06-26T09:03:55;5.50;;;2.17;;
48526;SDS011;34317;51.660;5.824;2023-06-26T09:06:22;4.32;;;2.00;;
48526;SDS011;34317;51.660;5.824;2023-06-26T09:08:49;3.55;;;1.90;;
48526;SDS011;34317;51.660;5.824;2023-06-26T09:11:16;4.40;;;1.88;;
48526;SDS011;34317;51.660;5.824;2023-06-26T09:13:43;2.65;;;1.50;;
48526;SDS011;34317;51.660;5.824;2023-06-26T09:16:11;5.38;;;1.67;;
48526;SDS011;34317;51.660;5.824;2023-06-26T09:18:42;5.88;;;1.92;;
48526;SDS011;34317;51.660;5.824;2023-06-26T09:21:12;5.30;;;1.85;;
48526;SDS011;34317;51.660;5.824;2023-06-26T09:23:40;4.18;;;1.75;;
48526;SDS011;34317;51.660;5.824;2023-06-26T09:26:08;3.67;;;1.73;;
48526;SDS011;34317;51.660;5.824;2023-06-26T09:28:35;2.95;;;1.30;;
48526;SDS011;34317;51.660;5.824;2023-06-26T09:31:03;3.30;;;1.40;;
48526;SDS011;34317;51.660;5.824;2023-06-26T09:33:37;1.77;;;1.10;;
48526;SDS011;34317;51.660;5.824;2023-06-26T09:36:06;2.85;;;0.98;;
48526;SDS011;34317;51.660;5.824;2023-06-26T09:38:46;3.00;;;1.38;;
48526;SDS011;34317;51.660;5.824;2023-06-26T09:41:17;3.42;;;1.27;;
48526;SDS011;34317;51.660;5.824;2023-06-26T09:43:45;3.58;;;1.23;;
48526;SDS011;34317;51.660;5.824;2023-06-26T09:46:16;3.38;;;1.20;;
48526;SDS011;34317;51.660;5.824;2023-06-26T09:48:57;2.70;;;0.85;;
48526;SDS011;34317;51.660;5.824;2023-06-26T09:51:34;2.85;;;1.13;;
48526;SDS011;34317;51.660;5.824;2023-06-26T09:54:04;3.58;;;1.27;;
48526;SDS011;34317;51.660;5.824;2023-06-26T09:56:32;4.22;;;1.10;;
48526;SDS011;34317;51.660;5.824;2023-06-26T09:59:00;4.25;;;1.00;;
48526;SDS011;34317;51.660;5.824;2023-06-26T10:01:31;1.88;;;1.23;;
48526;SDS011;34317;51.660;5.824;2023-06-26T10:03:59;2.20;;;1.10;;
48526;SDS011;34317;51.660;5.824;2023-06-26T10:06:33;3.13;;;1.10;;
48526;SDS011;34317;51.660;5.824;2023-06-26T10:09:02;1.90;;;1.05;;
48526;SDS011;34317;51.660;5.824;2023-06-26T10:11:51;3.22;;;1.00;;
48526;SDS011;34317;51.660;5.824;2023-06-26T10:14:26;2.55;;;1.10;;
48526;SDS011;34317;51.660;5.824;2023-06-26T10:16:57;2.55;;;1.20;;
48526;SDS011;34317;51.660;5.824;2023-06-26T10:19:26;2.92;;;1.10;;
48526;SDS011;34317;51.660;5.824;2023-06-26T10:21:55;2.05;;;0.90;;
48526;SDS011;34317;51.660;5.824;2023-06-26T10:24:23;5.20;;;1.13;;
48526;SDS011;34317;51.660;5.824;2023-06-26T10:26:52;2.30;;;1.08;;
48526;SDS011;34317;51.660;5.824;2023-06-26T10:29:25;2.63;;;1.20;;
48526;SDS011;34317;51.660;5.824;2023-06-26T10:31:55;5.88;;;1.25;;
48526;SDS011;34317;51.660;5.824;2023-06-26T10:34:26;4.32;;;1.33;;
48526;SDS011;34317;51.660;5.824;2023-06-26T10:37:01;2.95;;;1.30;;
48526;SDS011;34317;51.660;5.824;2023-06-26T10:42:12;3.05;;;1.10;;
48526;SDS011;34317;51.660;5.824;2023-06-26T10:44:41;4.45;;;1.17;;
48526;SDS011;34317;51.660;5.824;2023-06-26T10:47:12;3.15;;;1.48;;
48526;SDS011;34317;51.660;5.824;2023-06-26T10:49:56;2.53;;;1.08;;
48526;SDS011;34317;51.660;5.824;2023-06-26T10:52:37;3.33;;;1.20;;
48526;SDS011;34317;51.660;5.824;2023-06-26T10:55:04;2.45;;;0.90;;
48526;SDS011;34317;51.660;5.824;2023-06-26T10:57:35;4.28;;;1.30;;
48526;SDS011;34317;51.660;5.824;2023-06-26T11:00:09;1.75;;;0.80;;
48526;SDS011;34317;51.660;5.824;2023-06-26T11:02:49;3.90;;;1.00;;
48526;SDS011;34317;51.660;5.824;2023-06-26T11:05:24;2.28;;;1.05;;
48526;SDS011;34317;51.660;5.824;2023-06-26T11:08:05;3.35;;;1.10;;
48526;SDS011;34317;51.660;5.824;2023-06-26T11:13:33;3.20;;;0.80;;
48526;SDS011;34317;51.660;5.824;2023-06-26T11:16:01;4.70;;;1.10;;
48526;SDS011;34317;51.660;5.824;2023-06-26T11:18:29;2.30;;;1.00;;
48526;SDS011;34317;51.660;5.824;2023-06-26T11:21:04;1.40;;;0.85;;
48526;SDS011;34317;51.660;5.824;2023-06-26T11:23:32;4.10;;;1.00;;
48526;SDS011;34317;51.660;5.824;2023-06-26T11:26:17;1.85;;;0.90;;
48526;SDS011;34317;51.660;5.824;2023-06-26T11:28:52;4.85;;;1.10;;
48526;SDS011;34317;51.660;5.824;2023-06-26T11:31:28;5.75;;;1.00;;
48526;SDS011;34317;51.660;5.824;2023-06-26T11:33:59;2.03;;;0.80;;
48526;SDS011;34317;51.660;5.824;2023-06-26T11:36:28;4.00;;;1.00;;
48526;SDS011;34317;51.660;5.824;2023-06-26T11:38:56;3.55;;;1.05;;
48526;SDS011;34317;51.660;5.824;2023-06-26T11:41:27;2.75;;;1.00;;
48526;SDS011;34317;51.660;5.824;2023-06-26T11:43:59;2.45;;;0.90;;
48526;SDS011;34317;51.660;5.824;2023-06-26T11:46:31;1.50;;;0.90;;
48526;SDS011;34317;51.660;5.824;2023-06-26T11:48:59;2.72;;;1.15;;
48526;SDS011;34317;51.660;5.824;2023-06-26T11:51:26;2.45;;;1.08;;
48526;SDS011;34317;51.660;5.824;2023-06-26T11:53:55;3.08;;;1.13;;
48526;SDS011;34317;51.660;5.824;2023-06-26T11:56:22;3.10;;;1.17;;
48526;SDS011;34317;51.660;5.824;2023-06-26T11:59:05;2.50;;;1.00;;
48526;SDS011;34317;51.660;5.824;2023-06-26T12:01:41;2.17;;;0.93;;
48526;SDS011;34317;51.660;5.824;2023-06-26T12:04:15;3.47;;;0.90;;
48526;SDS011;34317;51.660;5.824;2023-06-26T12:06:48;2.65;;;1.23;;
48526;SDS011;34317;51.660;5.824;2023-06-26T12:09:20;1.77;;;1.02;;
48526;SDS011;34317;51.660;5.824;2023-06-26T12:11:48;2.30;;;1.17;;
48526;SDS011;34317;51.660;5.824;2023-06-26T12:14:23;2.80;;;1.13;;
48526;SDS011;34317;51.660;5.824;2023-06-26T12:16:52;2.22;;;0.95;;
48526;SDS011;34317;51.660;5.824;2023-06-26T12:19:24;3.25;;;1.08;;
48526;SDS011;34317;51.660;5.824;2023-06-26T12:21:53;4.15;;;1.10;;
48526;SDS011;34317;51.660;5.824;2023-06-26T12:24:23;3.63;;;1.20;;
48526;SDS011;34317;51.660;5.824;2023-06-26T12:26:51;1.42;;;0.90;;
48526;SDS011;34317;51.660;5.824;2023-06-26T12:29:33;1.35;;;1.00;;
48526;SDS011;34317;51.660;5.824;2023-06-26T12:32:01;2.38;;;1.00;;
48526;SDS011;34317;51.660;5.824;2023-06-26T12:34:32;4.40;;;1.10;;
48526;SDS011;34317;51.660;5.824;2023-06-26T12:37:02;2.72;;;1.10;;
48526;SDS011;34317;51.660;5.824;2023-06-26T12:39:47;3.05;;;1.10;;
48526;SDS011;34317;51.660;5.824;2023-06-26T12:42:20;2.58;;;1.10;;
48526;SDS011;34317;51.660;5.824;2023-06-26T12:44:48;2.40;;;1.10;;
48526;SDS011;34317;51.660;5.824;2023-06-26T12:47:15;3.33;;;0.95;;
48526;SDS011;34317;51.660;5.824;2023-06-26T12:49:44;3.20;;;0.90;;
48526;SDS011;34317;51.660;5.824;2023-06-26T12:52:16;3.65;;;1.20;;
48526;SDS011;34317;51.660;5.824;2023-06-26T12:54:51;1.52;;;1.00;;
48526;SDS011;34317;51.660;5.824;2023-06-26T12:57:19;2.70;;;1.10;;
48526;SDS011;34317;51.660;5.824;2023-06-26T12:59:46;2.40;;;1.02;;
48526;SDS011;34317;51.660;5.824;2023-06-26T13:02:14;2.33;;;1.00;;
48526;SDS011;34317;51.660;5.824;2023-06-26T13:04:41;3.83;;;0.90;;
48526;SDS011;34317;51.660;5.824;2023-06-26T13:07:08;2.00;;;1.02;;
48526;SDS011;34317;51.660;5.824;2023-06-26T13:09:36;6.10;;;1.15;;
48526;SDS011;34317;51.660;5.824;2023-06-26T13:12:05;1.90;;;1.15;;
48526;SDS011;34317;51.660;5.824;2023-06-26T13:14:32;3.13;;;1.55;;
48526;SDS011;34317;51.660;5.824;2023-06-26T13:17:00;3.65;;;1.60;;
48526;SDS011;34317;51.660;5.824;2023-06-26T13:19:27;6.70;;;1.58;;
48526;SDS011;34317;51.660;5.824;2023-06-26T13:21:55;5.40;;;1.30;;
48526;SDS011;34317;51.660;5.824;2023-06-26T13:24:22;2.63;;;1.30;;
48526;SDS011;34317;51.660;5.824;2023-06-26T13:26:49;3.90;;;1.50;;
48526;SDS011;34317;51.660;5.824;2023-06-26T13:29:16;3.08;;;1.45;;
48526;SDS011;34317;51.660;5.824;2023-06-26T13:31:43;3.00;;;1.35;;
48526;SDS011;34317;51.660;5.824;2023-06-26T13:34:19;2.17;;;1.20;;
48526;SDS011;34317;51.660;5.824;2023-06-26T13:36:48;2.55;;;1.40;;
48526;SDS011;34317;51.660;5.824;2023-06-26T13:39:16;2.40;;;1.20;;
48526;SDS011;34317;51.660;5.824;2023-06-26T13:41:43;3.03;;;1.45;;
48526;SDS011;34317;51.660;5.824;2023-06-26T13:44:11;2.85;;;1.23;;
48526;SDS011;34317;51.660;5.824;2023-06-26T13:46:58;5.28;;;1.20;;
48526;SDS011;34317;51.660;5.824;2023-06-26T13:49:25;3.85;;;1.30;;
48526;SDS011;34317;51.660;5.824;2023-06-26T13:51:52;3.30;;;1.25;;
48526;SDS011;34317;51.660;5.824;2023-06-26T13:54:19;3.45;;;1.00;;
48526;SDS011;34317;51.660;5.824;2023-06-26T13:56:47;3.53;;;1.40;;
48526;SDS011;34317;51.660;5.824;2023-06-26T13:59:14;1.95;;;1.00;;
48526;SDS011;34317;51.660;5.824;2023-06-26T14:01:41;2.33;;;1.20;;
48526;SDS011;34317;51.660;5.824;2023-06-26T14:04:11;4.68;;;1.30;;
48526;SDS011;34317;51.660;5.824;2023-06-26T14:06:39;2.40;;;1.20;;
48526;SDS011;34317;51.660;5.824;2023-06-26T14:09:06;3.40;;;1.20;;
48526;SDS011;34317;51.660;5.824;2023-06-26T14:11:34;4.78;;;1.10;;
48526;SDS011;34317;51.660;5.824;2023-06-26T14:14:01;2.30;;;1.10;;
48526;SDS011;34317;51.660;5.824;2023-06-26T14:16:28;1.58;;;0.98;;
48526;SDS011;34317;51.660;5.824;2023-06-26T14:18:56;4.65;;;1.40;;
48526;SDS011;34317;51.660;5.824;2023-06-26T14:21:23;1.30;;;0.93;;
48526;SDS011;34317;51.660;5.824;2023-06-26T14:23:51;2.78;;;1.20;;
48526;SDS011;34317;51.660;5.824;2023-06-26T14:26:18;2.70;;;1.10;;
48526;SDS011;34317;51.660;5.824;2023-06-26T14:28:45;2.35;;;1.05;;
48526;SDS011;34317;51.660;5.824;2023-06-26T14:31:12;2.28;;;1.00;;
48526;SDS011;34317;51.660;5.824;2023-06-26T14:33:40;2.65;;;1.20;;
48526;SDS011;34317;51.660;5.824;2023-06-26T14:36:07;4.40;;;1.27;;
48526;SDS011;34317;51.660;5.824;2023-06-26T14:38:34;4.60;;;1.20;;
48526;SDS011;34317;51.660;5.824;2023-06-26T14:41:02;3.22;;;1.00;;
48526;SDS011;34317;51.660;5.824;2023-06-26T14:43:29;2.72;;;1.10;;
48526;SDS011;34317;51.660;5.824;2023-06-26T14:45:57;2.80;;;1.13;;
48526;SDS011;34317;51.660;5.824;2023-06-26T14:48:24;2.33;;;1.10;;
48526;SDS011;34317;51.660;5.824;2023-06-26T14:50:54;2.78;;;1.27;;
48526;SDS011;34317;51.660;5.824;2023-06-26T14:53:21;2.78;;;1.10;;
48526;SDS011;34317;51.660;5.824;2023-06-26T14:55:48;3.00;;;1.13;;
48526;SDS011;34317;51.660;5.824;2023-06-26T14:58:15;4.65;;;1.52;;
48526;SDS011;34317;51.660;5.824;2023-06-26T15:00:42;2.00;;;1.17;;
48526;SDS011;34317;51.660;5.824;2023-06-26T15:03:10;3.25;;;1.50;;
48526;SDS011;34317;51.660;5.824;2023-06-26T15:05:38;3.30;;;1.58;;